Time;durP1;ratioP1;P1;durP2;ratioP2;P2;SDS_P1;SDS_P2;PMS_P1;PMS_P2;Temp;Humidity;BMP_temperature;BMP_pressure;BME280_temperature;BME280_humidity;BME280_pressure;Samples;Min_cycle;Max_cycle;Signal;HPM_P1;HPM_P2
2021/05/22 00:01:27;;;;;;;1.23;0.80;;;;;;;13.68;53.22;99228.83;154200;1101;103496;-84
2021/05/22 00:04:30;;;;;;;1.10;0.70;;;;;;;13.62;53.47;99236.81;154040;1101;103139;-84
2021/05/22 00:07:34;;;;;;;1.40;0.75;;;;;;;13.51;53.54;99247.07;154124;1101;103240;-85
2021/05/22 00:10:38;;;;;;;2.50;0.73;;;;;;;13.45;53.71;99253.22;154023;1096;103512;-80
2021/05/22 00:13:41;;;;;;;1.60;0.70;;;;;;;13.39;53.60;99242.45;154122;1101;103147;-81
2021/05/22 00:16:45;;;;;;;2.45;0.93;;;;;;;13.34;54.27;99241.19;154116;1101;103203;-80
2021/05/22 00:19:48;;;;;;;2.17;0.77;;;;;;;13.29;53.93;99248.13;154054;1096;103197;-81
2021/05/22 00:22:52;;;;;;;2.53;0.80;;;;;;;13.26;54.27;99243.99;154113;1101;103163;-82
2021/05/22 00:25:55;;;;;;;1.30;0.77;;;;;;;13.24;54.73;99231.80;154186;1101;103253;-82
2021/05/22 00:28:59;;;;;;;1.13;0.77;;;;;;;13.19;54.47;99232.39;154134;1095;103217;-83
2021/05/22 00:32:02;;;;;;;1.30;0.90;;;;;;;13.16;54.89;99225.59;154125;1095;103154;-83
2021/05/22 00:35:08;;;;;;;1.08;0.70;;;;;;;13.14;55.24;99224.11;154170;1096;103492;-83
2021/05/22 00:38:12;;;;;;;2.13;1.00;;;;;;;13.18;55.35;99220.02;154223;1101;103096;-83
2021/05/22 00:41:15;;;;;;;1.55;0.90;;;;;;;13.26;55.45;99219.88;154445;1101;103165;-83
2021/05/22 00:44:19;;;;;;;1.63;0.80;;;;;;;13.29;55.23;99221.33;154587;1101;103234;-84
2021/05/22 00:47:23;;;;;;;1.67;0.90;;;;;;;13.34;55.00;99209.03;154433;1101;103196;-79
2021/05/22 00:50:28;;;;;;;1.40;1.00;;;;;;;13.38;55.42;99211.34;154010;1096;103126;-81
2021/05/22 00:53:32;;;;;;;1.60;1.23;;;;;;;13.41;55.60;99213.60;154096;1101;103152;-83
2021/05/22 00:56:35;;;;;;;2.23;1.07;;;;;;;13.44;55.60;99223.94;154068;1096;103266;-81
2021/05/22 00:59:39;;;;;;;3.33;1.00;;;;;;;13.42;55.55;99229.48;154090;1101;103168;-81
2021/05/22 01:02:43;;;;;;;1.47;0.90;;;;;;;13.41;55.38;99224.32;154049;1101;103192;-81
2021/05/22 01:05:48;;;;;;;1.33;0.90;;;;;;;13.39;55.58;99237.09;154032;1101;103221;-82
2021/05/22 01:08:53;;;;;;;1.03;0.90;;;;;;;13.40;55.69;99234.22;154109;1101;103217;-82
2021/05/22 01:11:59;;;;;;;1.07;0.90;;;;;;;13.39;56.03;99231.73;154067;1096;103171;-82
2021/05/22 01:15:08;;;;;;;1.20;0.80;;;;;;;13.34;55.91;99230.47;154187;1101;103129;-82
2021/05/22 01:18:13;;;;;;;1.47;1.00;;;;;;;13.33;55.95;99223.44;154131;1101;103123;-83
2021/05/22 01:21:18;;;;;;;1.88;1.03;;;;;;;13.29;56.11;99216.80;154160;1096;103491;-82
2021/05/22 01:24:25;;;;;;;2.73;1.20;;;;;;;13.29;56.11;99232.05;154420;1096;103151;-81
2021/05/22 01:27:29;;;;;;;2.13;1.30;;;;;;;13.25;56.30;99239.64;154042;1101;103221;-82
2021/05/22 01:30:34;;;;;;;1.90;1.10;;;;;;;13.24;56.48;99243.36;154079;1101;103564;-85
2021/05/22 01:33:38;;;;;;;1.33;1.00;;;;;;;13.23;56.55;99243.55;154080;1096;103190;-82
2021/05/22 01:36:41;;;;;;;2.73;1.00;;;;;;;13.20;56.87;99233.22;154078;1101;103231;-82
2021/05/22 01:39:45;;;;;;;2.78;0.98;;;;;;;13.25;56.85;99223.57;154062;1096;103168;-76
2021/05/22 01:42:49;;;;;;;1.95;0.90;;;;;;;13.30;56.80;99223.86;153961;1101;103269;-76
2021/05/22 01:45:54;;;;;;;2.15;1.00;;;;;;;13.38;56.69;99214.02;154039;1101;103151;-77
2021/05/22 01:48:59;;;;;;;1.70;1.33;;;;;;;13.41;56.66;99217.10;153948;1095;103147;-77
2021/05/22 01:52:05;;;;;;;4.37;1.37;;;;;;;13.44;56.81;99215.90;153967;1096;103104;-77
2021/05/22 01:55:11;;;;;;;3.40;1.10;;;;;;;13.48;56.79;99219.84;154001;1095;103221;-76
2021/05/22 01:58:15;;;;;;;2.03;1.50;;;;;;;13.47;56.97;99212.81;153958;1101;103259;-78
2021/05/22 02:01:19;;;;;;;1.98;1.20;;;;;;;13.44;57.15;99214.04;153948;1101;103259;-78
2021/05/22 02:04:26;;;;;;;1.78;1.20;;;;;;;13.42;56.95;99213.41;153964;1094;103192;-77
2021/05/22 02:07:34;;;;;;;3.38;1.30;;;;;;;13.40;57.19;99206.60;154042;1101;103515;-80
2021/05/22 02:10:39;;;;;;;1.90;1.38;;;;;;;13.40;57.56;99207.42;154094;1101;103212;-79
2021/05/22 02:13:44;;;;;;;3.23;1.37;;;;;;;13.37;57.66;99205.13;153918;1096;103333;-85
2021/05/22 02:16:51;;;;;;;3.03;1.30;;;;;;;13.35;57.42;99199.14;154108;1096;103233;-81
2021/05/22 02:19:57;;;;;;;2.60;1.20;;;;;;;13.32;57.61;99200.38;154069;1101;103242;-82
2021/05/22 02:23:01;;;;;;;1.80;1.30;;;;;;;13.28;57.78;99192.88;154079;1096;103120;-78
2021/05/22 02:26:07;;;;;;;1.97;1.30;;;;;;;13.22;57.77;99201.70;154017;1094;103231;-84
2021/05/22 02:29:16;;;;;;;2.98;1.20;;;;;;;13.23;57.89;99211.41;154136;1101;103271;-86
2021/05/22 02:32:22;;;;;;;3.70;1.43;;;;;;;13.25;57.98;99218.22;154103;1101;103136;-84
2021/05/22 02:35:27;;;;;;;2.05;1.35;;;;;;;13.29;58.01;99219.47;154089;1101;103122;-79
2021/05/22 02:38:35;;;;;;;2.90;1.37;;;;;;;13.32;58.36;99221.80;153966;1096;103183;-78
2021/05/22 02:41:39;;;;;;;3.23;1.48;;;;;;;13.30;58.17;99229.21;153989;1096;103130;-78
2021/05/22 02:44:46;;;;;;;2.50;1.50;;;;;;;13.28;58.12;99220.52;153955;1101;103287;-77
2021/05/22 02:47:53;;;;;;;2.75;1.60;;;;;;;13.29;58.53;99226.69;153986;1095;103175;-76
2021/05/22 02:50:59;;;;;;;2.05;1.30;;;;;;;13.28;58.53;99230.38;153945;1095;103247;-77
2021/05/22 02:54:05;;;;;;;4.73;2.03;;;;;;;13.28;58.10;99233.06;153977;1094;103122;-80
2021/05/22 02:57:11;;;;;;;3.30;1.45;;;;;;;13.28;58.66;99230.38;154078;1096;103141;-81
2021/05/22 03:00:16;;;;;;;3.75;1.50;;;;;;;13.29;58.66;99232.87;154064;1101;103145;-81
2021/05/22 03:03:20;;;;;;;3.00;1.40;;;;;;;13.29;58.54;99234.73;154164;1101;103261;-81
2021/05/22 03:06:25;;;;;;;4.05;1.30;;;;;;;13.27;58.75;99232.23;154006;1101;103219;-80
2021/05/22 03:09:28;;;;;;;2.20;1.20;;;;;;;13.31;58.88;99225.49;153924;1101;103218;-81
2021/05/22 03:12:35;;;;;;;2.03;1.20;;;;;;;13.39;58.82;99237.09;153975;1096;103139;-80
2021/05/22 03:15:38;;;;;;;1.83;1.40;;;;;;;13.46;58.78;99230.75;154063;1096;103111;-81
2021/05/22 03:18:42;;;;;;;2.87;1.43;;;;;;;13.53;58.74;99233.48;154177;1094;103137;-86
2021/05/22 03:21:46;;;;;;;3.70;1.53;;;;;;;13.58;58.77;99233.70;154180;1101;103584;-85
2021/05/22 03:24:49;;;;;;;2.00;1.40;;;;;;;13.61;58.54;99241.36;154021;1101;103221;-80
2021/05/22 03:27:53;;;;;;;2.93;1.60;;;;;;;13.60;58.93;99237.00;154090;1101;103236;-82
2021/05/22 03:30:56;;;;;;;4.50;1.60;;;;;;;13.59;58.75;99239.88;154056;1096;103227;-82
2021/05/22 03:34:00;;;;;;;2.40;1.37;;;;;;;13.58;58.97;99252.45;154135;1101;103164;-79
2021/05/22 03:37:03;;;;;;;4.43;1.60;;;;;;;13.56;58.90;99241.11;154095;1101;103228;-80
2021/05/22 03:40:09;;;;;;;2.33;1.37;;;;;;;13.54;58.67;99251.20;154065;1101;103116;-80
2021/05/22 03:43:13;;;;;;;3.37;1.57;;;;;;;13.52;58.87;99261.30;154079;1101;103208;-81
2021/05/22 03:46:16;;;;;;;2.70;1.65;;;;;;;13.48;58.98;99246.63;154042;1101;103254;-80
2021/05/22 03:49:20;;;;;;;3.35;1.40;;;;;;;13.48;59.24;99249.31;153953;1101;103212;-78
2021/05/22 03:52:23;;;;;;;2.75;1.73;;;;;;;13.50;59.00;99258.80;153964;1096;103232;-76
2021/05/22 03:55:27;;;;;;;2.80;1.40;;;;;;;13.59;59.33;99254.13;153950;1101;103139;-77
2021/05/22 03:58:30;;;;;;;2.40;1.30;;;;;;;13.67;59.00;99251.28;153945;1096;103169;-78
2021/05/22 04:01:34;;;;;;;2.75;1.50;;;;;;;13.74;59.31;99236.06;153943;1101;103295;-81
2021/05/22 04:04:37;;;;;;;3.08;1.48;;;;;;;13.81;59.25;99236.08;153974;1095;103168;-78
2021/05/22 04:07:41;;;;;;;1.77;1.37;;;;;;;13.85;59.30;99237.34;153956;1101;103227;-77
2021/05/22 04:10:45;;;;;;;2.00;1.40;;;;;;;13.89;59.29;99232.41;153897;1101;103208;-77
2021/05/22 04:13:48;;;;;;;3.80;1.50;;;;;;;13.91;59.43;99244.61;154000;1101;103128;-80
2021/05/22 04:16:52;;;;;;;2.20;1.70;;;;;;;13.93;59.46;99241.70;153933;1094;103266;-77
2021/05/22 04:19:55;;;;;;;3.05;1.43;;;;;;;13.96;59.56;99244.00;153966;1101;103189;-80
2021/05/22 04:22:59;;;;;;;4.47;1.43;;;;;;;13.97;59.51;99239.45;154044;1096;103227;-78
2021/05/22 04:26:03;;;;;;;2.08;1.33;;;;;;;13.96;59.75;99235.13;153950;1096;103115;-75
2021/05/22 04:29:07;;;;;;;3.08;1.60;;;;;;;13.95;59.43;99236.97;153964;1096;103195;-76
2021/05/22 04:32:10;;;;;;;2.45;1.20;;;;;;;14.01;59.45;99246.06;153981;1096;103128;-76
2021/05/22 04:35:16;;;;;;;2.08;1.20;;;;;;;14.06;59.56;99235.58;154001;1101;103170;-78
2021/05/22 04:38:19;;;;;;;2.43;1.00;;;;;;;14.14;59.75;99251.48;154078;1101;103269;-76
2021/05/22 04:41:23;;;;;;;2.48;1.33;;;;;;;14.20;59.64;99255.22;153919;1101;103133;-76
2021/05/22 04:44:27;;;;;;;1.97;1.10;;;;;;;14.27;59.75;99256.90;153969;1101;103121;-78
2021/05/22 04:47:30;;;;;;;2.60;1.47;;;;;;;14.34;59.65;99265.80;153912;1096;103304;-76
2021/05/22 04:50:34;;;;;;;2.20;1.47;;;;;;;14.39;59.73;99254.45;153990;1096;103257;-81
2021/05/22 04:53:37;;;;;;;1.90;1.30;;;;;;;14.37;59.67;99267.25;154163;1101;103214;-85
2021/05/22 04:56:41;;;;;;;2.08;1.20;;;;;;;14.37;59.62;99267.25;154068;1101;103103;-81
2021/05/22 04:59:45;;;;;;;2.00;1.23;;;;;;;14.36;59.88;99249.51;154119;1101;103220;-82
2021/05/22 05:02:50;;;;;;;1.70;1.30;;;;;;;14.39;59.76;99243.72;154046;1101;103221;-81
2021/05/22 05:05:54;;;;;;;1.28;0.93;;;;;;;14.45;59.88;99236.71;154127;1101;103070;-82
2021/05/22 05:08:58;;;;;;;2.13;1.43;;;;;;;14.52;60.01;99249.12;154040;1095;103221;-82
2021/05/22 05:12:02;;;;;;;2.18;1.40;;;;;;;14.63;60.15;99254.97;154113;1101;103141;-78
2021/05/22 05:15:08;;;;;;;2.37;1.10;;;;;;;14.72;59.96;99264.46;154358;1101;103138;-80
2021/05/22 05:18:11;;;;;;;1.60;1.10;;;;;;;14.85;59.76;99258.29;154106;1101;103256;-75
2021/05/22 05:21:15;;;;;;;2.08;1.10;;;;;;;14.89;59.80;99260.34;153992;1101;103512;-84
2021/05/22 05:24:19;;;;;;;1.20;1.00;;;;;;;15.00;60.14;99255.41;154053;1101;103122;-82
2021/05/22 05:27:23;;;;;;;1.30;1.10;;;;;;;15.08;60.05;99249.83;154052;1101;103157;-80
2021/05/22 05:30:27;;;;;;;3.83;1.20;;;;;;;15.11;59.57;99247.55;154107;1096;103099;-80
2021/05/22 05:33:30;;;;;;;1.53;1.13;;;;;;;15.14;59.83;99246.30;154333;1101;103220;-87
2021/05/22 05:36:34;;;;;;;1.63;1.10;;;;;;;15.17;59.44;99245.90;154278;1096;103225;-81
2021/05/22 05:39:38;;;;;;;1.65;1.20;;;;;;;15.25;59.70;99253.74;154134;1101;103133;-81
2021/05/22 05:42:42;;;;;;;2.73;1.13;;;;;;;15.25;59.76;99247.55;154163;1101;103119;-81
2021/05/22 05:45:45;;;;;;;2.60;1.20;;;;;;;15.24;59.59;99245.88;154174;1096;103493;-82
2021/05/22 05:48:49;;;;;;;2.23;1.27;;;;;;;15.26;59.88;99241.97;154177;1094;103320;-83
2021/05/22 05:51:52;;;;;;;1.90;1.00;;;;;;;15.36;59.47;99249.61;154199;1101;103173;-83
2021/05/22 05:54:56;;;;;;;2.27;1.30;;;;;;;15.40;59.49;99242.77;154037;1095;103048;-80
2021/05/22 05:58:00;;;;;;;2.00;1.35;;;;;;;15.52;59.30;99253.70;154047;1095;103139;-82
2021/05/22 06:01:06;;;;;;;2.05;1.28;;;;;;;15.66;59.32;99249.94;154116;1096;103116;-83
2021/05/22 06:04:10;;;;;;;2.00;1.40;;;;;;;15.85;59.29;99252.83;154221;1101;103231;-82
2021/05/22 06:07:14;;;;;;;5.03;1.80;;;;;;;16.01;59.67;99267.66;154136;1101;103247;-82
2021/05/22 06:10:17;;;;;;;3.23;1.53;;;;;;;16.08;59.72;99280.05;154270;1101;103167;-83
2021/05/22 06:13:26;;;;;;;2.60;1.50;;;;;;;16.18;59.13;99281.47;154183;1101;103260;-83
2021/05/22 06:16:32;;;;;;;2.50;1.53;;;;;;;16.24;59.34;99277.92;154228;1094;103246;-83
2021/05/22 06:19:36;;;;;;;1.83;1.30;;;;;;;16.32;59.36;99274.16;154273;1101;103496;-82
2021/05/22 06:22:40;;;;;;;3.03;1.30;;;;;;;16.47;58.91;99270.16;154193;1101;103222;-81
2021/05/22 06:25:43;;;;;;;3.43;1.40;;;;;;;16.71;58.95;99253.45;154197;1096;103224;-83
2021/05/22 06:28:47;;;;;;;3.45;1.58;;;;;;;16.86;59.08;99246.73;154160;1101;103166;-80
2021/05/22 06:31:51;;;;;;;3.47;1.57;;;;;;;16.97;58.61;99263.22;154196;1095;103142;-84
2021/05/22 06:34:55;;;;;;;3.33;1.27;;;;;;;16.98;58.59;99260.31;154149;1101;103234;-83
2021/05/22 06:37:58;;;;;;;2.17;1.30;;;;;;;16.88;58.48;99263.50;154147;1100;103157;-83
2021/05/22 06:41:02;;;;;;;2.33;1.23;;;;;;;16.86;58.64;99249.42;154103;1101;103118;-78
2021/05/22 06:44:07;;;;;;;2.30;1.43;;;;;;;16.87;58.30;99248.36;153979;1101;103131;-79
2021/05/22 06:47:10;;;;;;;2.80;1.27;;;;;;;16.83;58.70;99249.03;154238;1101;103222;-78
2021/05/22 06:50:14;;;;;;;3.17;1.30;;;;;;;16.82;58.24;99258.98;154095;1096;103250;-78
2021/05/22 06:53:18;;;;;;;1.90;1.10;;;;;;;16.75;58.48;99258.17;154172;1101;103245;-77
2021/05/22 06:56:21;;;;;;;1.47;1.23;;;;;;;16.76;58.48;99250.91;154089;1101;103246;-76
2021/05/22 06:59:24;;;;;;;2.27;1.50;;;;;;;16.75;58.43;99246.58;154082;1101;103234;-75
2021/05/22 07:02:28;;;;;;;2.20;1.30;;;;;;;16.74;58.61;99240.34;154078;1101;103128;-75
2021/05/22 07:05:32;;;;;;;2.25;1.38;;;;;;;16.69;58.47;99242.88;154074;1101;103133;-77
2021/05/22 07:08:35;;;;;;;3.43;1.80;;;;;;;16.71;58.54;99245.36;154116;1101;103135;-74
2021/05/22 07:11:39;;;;;;;1.63;1.33;;;;;;;16.69;58.75;99238.31;154068;1101;103120;-77
2021/05/22 07:14:42;;;;;;;2.53;1.30;;;;;;;16.69;58.86;99232.11;153990;1101;103097;-78
2021/05/22 07:17:47;;;;;;;3.40;1.70;;;;;;;16.69;58.51;99226.72;154092;1101;103250;-75
2021/05/22 07:20:51;;;;;;;2.00;1.25;;;;;;;16.70;58.72;99217.58;153946;1101;103177;-82
2021/05/22 07:23:54;;;;;;;1.85;1.25;;;;;;;16.73;58.61;99227.93;154159;1096;103227;-82
2021/05/22 07:26:58;;;;;;;1.83;1.20;;;;;;;16.78;58.53;99227.27;154100;1101;103129;-78
2021/05/22 07:30:02;;;;;;;2.00;1.23;;;;;;;16.84;58.76;99235.34;154084;1101;103242;-79
2021/05/22 07:33:05;;;;;;;4.50;1.30;;;;;;;16.96;58.56;99240.02;153986;1101;103165;-79
2021/05/22 07:36:10;;;;;;;2.70;1.40;;;;;;;17.04;58.41;99247.83;153963;1094;103508;-79
2021/05/22 07:39:14;;;;;;;2.20;1.20;;;;;;;17.07;58.34;99250.06;154006;1101;103190;-80
2021/05/22 07:42:19;;;;;;;2.38;1.28;;;;;;;16.99;58.41;99242.27;154012;1101;103219;-81
2021/05/22 07:45:22;;;;;;;2.73;1.40;;;;;;;16.98;58.63;99248.72;154092;1096;103107;-77
2021/05/22 07:48:26;;;;;;;3.23;1.50;;;;;;;16.97;58.60;99249.75;154029;1101;103110;-79
2021/05/22 07:51:29;;;;;;;2.30;1.50;;;;;;;16.92;58.49;99247.72;153979;1101;103210;-83
2021/05/22 07:54:35;;;;;;;3.18;1.53;;;;;;;16.91;58.74;99256.83;154087;1101;103237;-75
2021/05/22 07:57:39;;;;;;;2.50;1.38;;;;;;;16.86;58.58;99259.38;153993;1101;103247;-77
2021/05/22 08:00:42;;;;;;;2.90;1.60;;;;;;;16.86;59.00;99260.20;154057;1095;103095;-74
2021/05/22 08:03:46;;;;;;;2.70;1.67;;;;;;;16.87;58.93;99267.22;154077;1096;103100;-82
2021/05/22 08:06:49;;;;;;;2.38;1.55;;;;;;;16.81;58.95;99268.06;154092;1101;103263;-83
2021/05/22 08:09:53;;;;;;;2.33;1.50;;;;;;;16.81;58.86;99262.68;154454;1101;103521;-80
2021/05/22 08:12:56;;;;;;;2.88;1.80;;;;;;;16.88;58.83;99254.59;154030;1095;103195;-80
2021/05/22 08:16:00;;;;;;;2.53;1.80;;;;;;;16.95;59.49;99268.00;154129;1101;103235;-79
2021/05/22 08:19:05;;;;;;;3.20;1.60;;;;;;;16.99;59.41;99263.83;154057;1101;103110;-78
2021/05/22 08:22:08;;;;;;;2.93;1.77;;;;;;;17.05;59.21;99271.88;154086;1096;103296;-82
2021/05/22 08:25:13;;;;;;;3.58;1.70;;;;;;;17.08;59.47;99276.80;154171;1101;103160;-78
2021/05/22 08:28:20;;;;;;;4.43;2.10;;;;;;;17.12;59.52;99274.50;154183;1101;103175;-80
2021/05/22 08:31:24;;;;;;;3.93;2.40;;;;;;;17.19;59.84;99275.28;154182;1096;103157;-80
2021/05/22 08:34:28;;;;;;;4.60;3.03;;;;;;;17.16;59.75;99270.31;154096;1096;103219;-81
2021/05/22 08:37:32;;;;;;;4.13;3.00;;;;;;;17.07;59.99;99266.23;154248;1101;103296;-78
2021/05/22 08:40:36;;;;;;;4.95;3.65;;;;;;;17.02;59.67;99266.09;154027;1101;103103;-76
2021/05/22 08:43:39;;;;;;;4.73;3.50;;;;;;;16.95;59.78;99265.31;154078;1096;103213;-74
2021/05/22 08:46:46;;;;;;;5.40;3.68;;;;;;;16.87;59.94;99277.18;153986;1096;104067;-79
2021/05/22 08:49:51;;;;;;;5.90;3.60;;;;;;;16.79;60.33;99280.11;154003;1101;103099;-79
2021/05/22 08:52:55;;;;;;;5.25;3.50;;;;;;;16.71;60.28;99283.89;154024;1096;103259;-79
2021/05/22 08:55:59;;;;;;;5.20;3.30;;;;;;;16.74;60.73;99278.05;154006;1101;103225;-82
2021/05/22 08:59:02;;;;;;;4.37;2.80;;;;;;;16.75;60.47;99285.11;154219;1101;103231;-79
2021/05/22 09:02:06;;;;;;;4.93;2.53;;;;;;;16.72;60.49;99287.41;154006;1101;103089;-80
2021/05/22 09:05:18;;;;;;;3.98;2.48;;;;;;;16.64;60.68;99297.38;154094;1101;103133;-82
2021/05/22 09:08:21;;;;;;;3.18;2.28;;;;;;;16.55;60.94;99296.02;154233;1096;103251;-80
2021/05/22 09:11:27;;;;;;;3.53;2.00;;;;;;;16.54;61.14;99290.84;154192;1101;103250;-81
2021/05/22 09:14:47;;;;;;;3.03;1.90;;;;;;;16.57;61.09;99299.31;154125;1101;103139;-81
2021/05/22 09:17:54;;;;;;;2.67;2.10;;;;;;;16.54;61.21;99285.45;153971;1096;103157;-78
2021/05/22 09:20:59;;;;;;;4.67;2.47;;;;;;;16.53;61.68;99291.86;154228;1094;103225;-81
2021/05/22 09:24:03;;;;;;;3.60;2.53;;;;;;;16.50;61.45;99287.74;153957;1096;103374;-79
2021/05/22 09:27:11;;;;;;;2.60;2.10;;;;;;;16.48;61.65;99285.26;154078;1101;103136;-79
2021/05/22 09:30:17;;;;;;;4.63;2.35;;;;;;;16.53;61.80;99281.09;154175;1096;103218;-78
2021/05/22 09:33:23;;;;;;;4.23;2.53;;;;;;;16.62;61.72;99280.62;153978;1101;103484;-78
2021/05/22 09:36:26;;;;;;;5.07;2.47;;;;;;;16.64;61.49;99285.80;154008;1095;103165;-78
2021/05/22 09:39:30;;;;;;;3.55;2.45;;;;;;;16.62;61.39;99279.80;153928;1101;103676;-78
2021/05/22 09:42:33;;;;;;;3.30;2.38;;;;;;;16.57;61.83;99288.54;153974;1101;103190;-77
2021/05/22 09:45:39;;;;;;;3.43;2.47;;;;;;;16.60;61.60;99280.02;153960;1095;103560;-78
2021/05/22 09:48:42;;;;;;;5.08;2.80;;;;;;;16.60;61.83;99281.89;153968;1101;103107;-77
2021/05/22 09:51:57;;;;;;;5.17;2.83;;;;;;;16.57;61.79;99279.61;153932;1096;103137;-79
2021/05/22 09:55:01;;;;;;;3.60;2.33;;;;;;;16.47;62.10;99278.23;153956;1101;103278;-80
2021/05/22 09:58:05;;;;;;;3.93;3.10;;;;;;;16.40;62.39;99273.93;153960;1101;103196;-82
2021/05/22 10:01:09;;;;;;;4.47;3.30;;;;;;;16.32;62.25;99274.16;153937;1094;103216;-79
2021/05/22 10:04:20;;;;;;;3.47;2.17;;;;;;;16.33;62.23;99267.75;153930;1101;103221;-78
2021/05/22 10:07:35;;;;;;;2.70;2.08;;;;;;;16.35;62.90;99269.17;153974;1101;103136;-79
2021/05/22 10:10:45;;;;;;;3.75;2.40;;;;;;;16.32;62.31;99253.47;153954;1096;103276;-80
2021/05/22 10:13:50;;;;;;;5.20;2.50;;;;;;;16.40;62.32;99255.91;153970;1101;103141;-81
2021/05/22 10:16:53;;;;;;;3.98;2.55;;;;;;;16.45;62.33;99244.47;153970;1101;103167;-77
2021/05/22 10:19:59;;;;;;;3.20;2.53;;;;;;;16.46;62.43;99233.48;153977;1095;103231;-78
2021/05/22 10:23:03;;;;;;;3.85;2.90;;;;;;;16.46;62.71;99233.48;153995;1096;103144;-79
2021/05/22 10:26:07;;;;;;;4.10;3.18;;;;;;;16.51;62.58;99230.14;153963;1096;103153;-78
2021/05/22 10:29:11;;;;;;;4.80;3.20;;;;;;;16.59;62.98;99223.66;153963;1096;103223;-80
2021/05/22 10:32:21;;;;;;;5.47;3.90;;;;;;;16.66;62.92;99224.45;153964;1101;103564;-79
2021/05/22 10:35:26;;;;;;;5.38;3.60;;;;;;;16.82;62.73;99223.11;153972;1101;103221;-77
2021/05/22 10:38:44;;;;;;;5.27;3.60;;;;;;;17.00;62.87;99216.98;153975;1096;103104;-78
2021/05/22 10:41:47;;;;;;;5.30;3.70;;;;;;;17.18;62.47;99218.88;153941;1096;103248;-79
2021/05/22 10:44:51;;;;;;;6.20;3.95;;;;;;;17.33;62.48;99213.15;153961;1101;103218;-82
2021/05/22 10:47:55;;;;;;;5.30;4.10;;;;;;;17.46;62.67;99215.72;153956;1096;103130;-78
2021/05/22 10:50:59;;;;;;;6.10;4.40;;;;;;;17.55;62.78;99219.77;153949;1101;103136;-77
2021/05/22 10:54:06;;;;;;;5.10;3.70;;;;;;;17.61;62.65;99212.63;153951;1101;103134;-77
2021/05/22 10:57:10;;;;;;;5.13;3.93;;;;;;;17.63;62.72;99210.56;153955;1101;103299;-82
2021/05/22 11:00:23;;;;;;;5.37;4.17;;;;;;;17.63;62.91;99215.95;153966;1101;103257;-78
2021/05/22 11:03:26;;;;;;;4.40;3.70;;;;;;;17.59;62.69;99222.81;154051;1101;103289;-75
2021/05/22 11:06:43;;;;;;;4.77;3.57;;;;;;;17.55;62.58;99211.68;153941;1101;103131;-77
2021/05/22 11:09:55;;;;;;;4.83;3.03;;;;;;;17.43;62.74;99210.75;153917;1101;103139;-79
2021/05/22 11:12:57;;;;;;;;;;;;;;;17.16;62.84;99216.41;154003;1095;103275;-78
2021/05/22 11:16:05;;;;;;;6.83;5.13;;;;;;;16.96;63.13;99221.16;153981;1096;103221;-79
2021/05/22 11:19:09;;;;;;;5.30;3.07;;;;;;;16.73;62.57;99227.11;153949;1096;103233;-79
2021/05/22 11:22:15;;;;;;;4.40;2.70;;;;;;;16.51;62.28;99213.16;153923;1101;103138;-79
2021/05/22 11:25:19;;;;;;;3.20;1.90;;;;;;;16.49;62.87;99216.91;154004;1101;103195;-81
2021/05/22 11:28:24;;;;;;;2.80;1.90;;;;;;;16.41;62.72;99214.45;153901;1096;103259;-78
2021/05/22 11:31:34;;;;;;;3.68;2.13;;;;;;;16.40;62.65;99218.20;154010;1101;103190;-78
2021/05/22 11:34:38;;;;;;;3.35;2.28;;;;;;;16.36;62.88;99218.84;154016;1101;103158;-77
2021/05/22 11:37:41;;;;;;;3.07;2.30;;;;;;;16.35;62.82;99226.09;153873;1101;103218;-79
2021/05/22 11:40:49;;;;;;;4.63;3.60;;;;;;;16.37;62.61;99228.58;153984;1095;103145;-78
2021/05/22 11:44:06;;;;;;;5.08;4.28;;;;;;;16.34;62.99;99227.16;153966;1096;103298;-79
2021/05/22 11:47:09;;;;;;;3.20;2.10;;;;;;;16.31;62.91;99224.88;154002;1096;103224;-81
2021/05/22 11:50:25;;;;;;;3.33;2.23;;;;;;;16.30;62.97;99233.98;153932;1101;103225;-78
2021/05/22 11:53:29;;;;;;;2.88;1.95;;;;;;;16.31;62.97;99230.27;153944;1101;103172;-78
2021/05/22 11:56:35;;;;;;;2.83;2.10;;;;;;;16.30;63.41;99236.67;154001;1096;103544;-78
2021/05/22 11:59:40;;;;;;;2.30;1.90;;;;;;;16.32;63.06;99237.31;153968;1095;103158;-78
2021/05/22 12:02:43;;;;;;;3.58;2.05;;;;;;;16.36;63.37;99237.69;154072;1101;103183;-77
2021/05/22 12:05:47;;;;;;;3.27;2.43;;;;;;;16.30;63.37;99244.75;153944;1095;103242;-77
2021/05/22 12:09:09;;;;;;;3.15;2.60;;;;;;;16.16;63.51;99237.80;154065;1101;103058;-77
2021/05/22 12:12:13;;;;;;;3.53;2.40;;;;;;;16.08;63.53;99252.33;154122;1101;103141;-78
2021/05/22 12:15:24;;;;;;;2.97;2.07;;;;;;;16.05;63.34;99240.13;154036;1096;103209;-78
2021/05/22 12:18:28;;;;;;;3.17;2.27;;;;;;;16.05;63.37;99242.83;154054;1096;103107;-79
2021/05/22 12:21:33;;;;;;;2.80;2.47;;;;;;;16.08;63.45;99241.56;153971;1101;103221;-78
2021/05/22 12:24:38;;;;;;;2.88;2.40;;;;;;;16.08;63.76;99246.94;153962;1096;103192;-76
2021/05/22 12:27:42;;;;;;;4.78;2.20;;;;;;;16.02;63.57;99242.42;154064;1095;103149;-82
2021/05/22 12:30:46;;;;;;;3.03;2.50;;;;;;;15.99;63.79;99242.84;153935;1096;103264;-78
2021/05/22 12:34:06;;;;;;;3.00;2.48;;;;;;;15.99;63.86;99248.22;153957;1101;103104;-78
2021/05/22 12:37:12;;;;;;;3.00;2.50;;;;;;;16.03;64.29;99244.91;153954;1096;103131;-80
2021/05/22 12:40:16;;;;;;;4.48;2.38;;;;;;;15.94;64.14;99246.17;153891;1101;103118;-77
2021/05/22 12:43:19;;;;;;;3.23;2.47;;;;;;;16.03;64.14;99239.52;153943;1101;103141;-79
2021/05/22 12:46:28;;;;;;;4.60;2.20;;;;;;;16.17;64.18;99239.47;153930;1101;103334;-79
2021/05/22 12:49:32;;;;;;;5.00;2.63;;;;;;;16.28;64.12;99228.84;153991;1101;103227;-79
2021/05/22 12:52:50;;;;;;;3.73;2.77;;;;;;;16.43;64.06;99233.09;153967;1094;103235;-77
2021/05/22 12:56:06;;;;;;;4.20;3.23;;;;;;;16.51;64.10;99224.75;153941;1101;103221;-79
2021/05/22 12:59:16;;;;;;;11.23;8.45;;;;;;;16.56;63.91;99213.34;154071;1101;103208;-78
2021/05/22 13:02:25;;;;;;;5.43;4.20;;;;;;;16.61;64.34;99216.19;154025;1096;103231;-77
2021/05/22 13:05:30;;;;;;;8.60;7.70;;;;;;;16.56;64.06;99206.08;154072;1101;103139;-78
2021/05/22 13:08:34;;;;;;;7.53;6.38;;;;;;;16.51;63.90;99211.28;153961;1096;103219;-77
2021/05/22 13:11:38;;;;;;;8.73;5.68;;;;;;;16.52;64.03;99204.05;153976;1096;103139;-78
2021/05/22 13:14:46;;;;;;;18.08;14.28;;;;;;;16.51;64.20;99208.59;153968;1101;103239;-77
2021/05/22 13:17:52;;;;;;;7.93;6.30;;;;;;;16.56;63.74;99194.49;154037;1101;103718;-79
2021/05/22 13:20:58;;;;;;;5.38;4.20;;;;;;;16.66;63.72;99194.83;154073;1096;103140;-78
2021/05/22 13:24:10;;;;;;;4.98;4.20;;;;;;;16.71;63.98;99186.92;154023;1096;103244;-78
2021/05/22 13:27:14;;;;;;;3.10;2.50;;;;;;;16.80;63.82;99179.38;153953;1096;104151;-79
2021/05/22 13:30:23;;;;;;;5.40;4.90;;;;;;;16.85;63.66;99180.40;153966;1096;103243;-77
2021/05/22 13:33:35;;;;;;;4.23;3.40;;;;;;;16.97;63.63;99168.90;153966;1101;103239;-78
2021/05/22 13:36:40;;;;;;;3.63;2.80;;;;;;;17.12;63.97;99172.08;154002;1101;103214;-79
2021/05/22 13:39:44;;;;;;;5.43;3.63;;;;;;;17.20;63.73;99174.47;153947;1101;103219;-78
2021/05/22 13:42:48;;;;;;;4.20;3.40;;;;;;;17.22;63.42;99176.95;154048;1101;103604;-77
2021/05/22 13:45:52;;;;;;;8.18;6.55;;;;;;;17.15;63.14;99171.64;154076;1096;103220;-76
2021/05/22 13:48:55;;;;;;;255.10;86.58;;;;;;;17.17;63.40;99179.52;154029;1101;103208;-78
2021/05/22 13:51:58;;;;;;;15.13;7.70;;;;;;;17.23;63.02;99184.01;153960;1101;103144;-79
2021/05/22 13:55:02;;;;;;;7.63;4.18;;;;;;;17.26;63.09;99194.33;153930;1101;103227;-79
2021/05/22 13:58:06;;;;;;;12.70;10.30;;;;;;;17.17;63.12;99185.72;153930;1101;103126;-78
2021/05/22 14:01:10;;;;;;;4.55;3.28;;;;;;;17.04;62.74;99192.05;154002;1095;103220;-79
2021/05/22 14:04:13;;;;;;;8.28;4.78;;;;;;;16.99;63.21;99188.37;153902;1101;103203;-82
2021/05/22 14:07:17;;;;;;;4.65;3.28;;;;;;;17.01;62.64;99183.58;153953;1101;103119;-79
2021/05/22 14:10:20;;;;;;;3.50;2.83;;;;;;;16.99;62.61;99174.89;153929;1096;103141;-78